List of METAR weather stations located at airports

Search a station alphabetically:
A B C D E F G H I J K L M N O P Q R S T U V W X Y Z

Filter by:

ID of station:
and/or
Name of place (fulltext):
 
Station (ID)Last updated 
Aalborg (EKYT) 07.02.2023 17:50 UTC Display METAR
EKYT 071750Z AUTO 23008KT 9999 OVC048/// 05/03 Q1036
Aarhus (EKAH) 07.02.2023 17:50 UTC Display METAR
EKAH 071750Z AUTO 22004KT 180V270 9999 SCT140/// 04/03 Q1038
Abu Dhabi (OMAA) 07.02.2023 18:00 UTC Display METAR
OMAA 071800Z 10006KT CAVOK 25/06 Q1011 NOSIG
Abuja (DNAA) 07.02.2023 18:00 UTC Display METAR
DNAA 071800Z 17004KT CAVOK 34/14 Q1010 NOSIG
Accra (DGAA) 07.02.2023 14:00 UTC Display METAR
DGAA 071400Z 19014KT 9999 FEW017 31/22 Q1009 NOSIG
Addis Abeba (HAAB) 07.02.2023 18:00 UTC Display METAR
HAAB 071800Z 09010KT 9999 FEW025 16/M06 Q1027 NOSIG
Agana (PGUM) 07.02.2023 17:54 UTC Display METAR
PGUM 071754Z 07010KT 10SM FEW024 FEW029 27/23 A2982 RMK AO2 SLP091 T02670228 10272 20261 56019
Ahe Island (NTHE) Not yet loaded  
Akureyri (BIAR) 07.02.2023 18:00 UTC Display METAR
BIAR 071800Z 17006KT 140V220 9999 -SHSN SCT022 BKN043 M03/M07 Q0981
Almaty (UAAA) Not yet loaded  
Amman (OJAM) 07.02.2023 18:00 UTC Display METAR
OJAM 071800Z 24008KT 3000 RA BKN010 BKN040 04/03 Q1015 NOSIG
Amsterdam (EHAM) 07.02.2023 17:55 UTC Display METAR
EHAM 071755Z VRB02KT CAVOK 02/M02 Q1039 NOSIG
Antananarivo (FMMI) 07.02.2023 10:00 UTC Display METAR
FMMI 071000Z 10012KT 9999 BKN020 25/16 Q1018 NOSIG
Antwerp (EBAW) 07.02.2023 17:50 UTC Display METAR
EBAW 071750Z 05003KT CAVOK 02/M02 Q1039 NOSIG
Apia (NSFA) 07.02.2023 18:00 UTC Display METAR
NSFA 071800Z 11004KT 9999 SCT020 BKN130 25/24 Q1010
Aruba I (TNCA) 07.02.2023 18:00 UTC Display METAR
TNCA 071800Z 09021KT 9999 FEW027 29/20 Q1014 NOSIG
Ascension I. (FHAW) 02.02.2023 11:50 UTC Display METAR
FHAW 021150Z 14019KT 9999 FEW012 29/24 Q1013 NOSIG RMK BLU BLU
Ashgabat (UTAA) 07.02.2023 18:00 UTC Display METAR
UTAA 071800Z 29004KT 150V320 9999 SCT100 11/M02 Q1003 R88/CLRD70 NOSIG
Asmara (HHAS) 03.02.2015 17:00 UTC Display METAR
HHAS 031700Z 27004KT CAVOK 15/06 Q1028 NOSIG
Astana (UACC) Not yet loaded  
Astrakhan (URWA) Not yet loaded  
Asuncion (SGAS) 07.02.2023 18:00 UTC Display METAR
SGAS 071800Z VRB03KT 9999 SCT033 37/14 Q1010
Athens (LGAV) 07.02.2023 17:50 UTC Display METAR
LGAV 071750Z 02006KT 6000 -SN SCT012 BKN025 01/M01 Q1030 NOSIG
Baghdad (ORBS) 06.06.2012 04:00 UTC  
Bagram (KQSA) 11.12.2022 19:00 UTC Display METAR
KQSA 111900Z VRB06KT 7SM BKN050 09/04 A2991 RMK SLP126 TOO940044
Bahrain (OBBI) 07.02.2023 18:00 UTC Display METAR
OBBI 071800Z 31014KT 8000 SCT020 20/18 Q1012 NOSIG
Baku (UBBB) 07.02.2023 18:00 UTC Display METAR
UBBB 071800Z 32020G32KT 9999 -RA BKN008 OVC020 02/01 Q1012 NOSIG
Bamako (GABS) 07.02.2023 18:00 UTC Display METAR
GABS 071800Z 00000KT CAVOK 34/03 Q1010 NOSIG
Bandar Seri Begawan (WBSB) 07.02.2023 18:00 UTC Display METAR
WBSB 071800Z 18002KT 9999 -SHRA FEW003 SCT014 BKN140 24/24 Q1010 NOSIG
Bangkok (VTBD) 07.02.2023 18:00 UTC Display METAR
VTBD 071800Z 19006KT 9999 FEW030 27/25 Q1010 NOSIG
Bangui (FEFF) 07.02.2023 16:00 UTC Display METAR
FEFF 071600Z 18006KT 9999 FEW020 36/23 Q1007 NOSIG
Banja Luka (LQBK) 07.02.2023 18:00 UTC Display METAR
LQBK 071800Z VRB02KT 9999 BKN043 M01/M067 Q1039 NOSIG
Banjul (GBYD) 07.02.2023 18:00 UTC Display METAR
GBYD 071800Z 27007KT 9000 NSC 27/12 Q1009
Barbados (TBPB) 07.02.2023 18:00 UTC Display METAR
TBPB 071800Z 10014KT 9999 FEW018 BKN042 27/21 Q1014 NOSIG
Barcelona (LEBL) 07.02.2023 18:00 UTC Display METAR
LEBL 071800Z 08023G33KT 7000 -RA FEW013 SCT025 BKN035 11/07 Q1025 NOSIG
Bari (LIBD) 07.02.2023 17:50 UTC Display METAR
LIBD 071750Z 02008KT 350V050 9999 SCT040 06/M06 Q1032
Basle-Mulhouse (LFSB) 07.02.2023 18:00 UTC Display METAR
LFSB 071800Z AUTO 34008KT CAVOK 00/M03 Q1036 NOSIG
Basse-Terre (TFFB) Not yet loaded  
Basseterre (TKPK) 07.02.2023 18:00 UTC Display METAR
TKPK 071800Z 05013KT 9999 FEW018 28/23 Q1017
Beijing (ZBAA) Not yet loaded  
Beirut (OLBA) 07.02.2023 16:00 UTC Display METAR
OLBA 071600Z 32006KT 8000 SCT050 13/02 Q1014 NOSIG
Belfast (EGAA) 07.02.2023 17:50 UTC Display METAR
EGAA 071750Z AUTO 22006KT 9999 OVC025 08/06 Q1035
Belgrade (LYBE) 07.02.2023 18:00 UTC Display METAR
LYBE 071800Z 32004KT CAVOK M03/M06 Q1038 NOSIG
Belize City (MZBZ) 07.02.2023 18:00 UTC Display METAR
MZBZ 071800Z 09010KT 9999 FEW024 28/22 A3000 Q1016 NOSIG
Bergen (ENBR) 07.02.2023 17:50 UTC Display METAR
ENBR 071750Z 17012KT 3500 -RA BKN004 06/06 Q1030 TEMPO 2000 RADZ BR RMK WIND 1200FT 20013KT
Berlin (EDDT) 09.11.2020 06:50 UTC Display METAR
EDDT 090650Z 09006KT 050V120 3000 BR OVC003 06/05 Q1027
Bermuda Is (TXKF) 07.02.2023 14:55 UTC Display METAR
TXKF 071455Z 32021G32KT 9000 -SHRA BKN030 BKN070 17/13 Q1019
Bern (LSZB) 07.02.2023 17:50 UTC Display METAR
LSZB 071750Z 00000KT CAVOK 00/M03 Q1033
Billund (EKBI) 07.02.2023 17:50 UTC Display METAR
EKBI 071750Z AUTO 20007KT 170V230 9000 BKN028/// 02/02 Q1039
Birmingham (EGBB) 07.02.2023 17:50 UTC Display METAR
EGBB 071750Z 19003KT CAVOK 04/01 Q1037
1 2 3 ... 8 Next

Newslettter

Weather to your email

We'll send a daily weather forecast every morning without ads



Unsubscribe newsletter

Beautiful photos of nature as the wallpapers for your desktop

All articles

WeatherSunshine.com